Amistad, New Mexico
Current Conditions -  °F | °C
As of 12:53 PM on Tuesday 21 Oct 2014 (Local Time) from KDHT Reporting Station
Clear Clear  
Wind Chill: 73°   Ceiling: Unl
Heat Index: 73°   Visibility: 10mi
Dew Point: 47°   Wind: 18mph
Humidity: 39%   Direction: 190°S
Pressure: 30.1"   Gusts: NA
Location:  35.92°N, 103.16°W
Report Text: KDHT 211853Z AUTO 19016KT 10SM CLR 23/08 A3010 RMK AO2 PK WND 21026/1823 SLP155 T02280083
Loading
Personal Weather Stations






























Interactive Weather Map New forecast layout! Learn more

10-Day Weather Forecast

Advertisements
Track Severe Weather on mobile